sensor_id;sensor_type;location;lat;lon;timestamp;temperature;humidity
3100;DHT22;1560;52.746;13.474;2023-04-29T00:02:09;12.10;99.90
3100;DHT22;1560;52.746;13.474;2023-04-29T00:07:14;12.10;99.90
3100;DHT22;1560;52.746;13.474;2023-04-29T00:09:43;12.10;99.90
3100;DHT22;1560;52.746;13.474;2023-04-29T00:12:13;12.10;99.90
3100;DHT22;1560;52.746;13.474;2023-04-29T00:14:42;12.10;99.90
3100;DHT22;1560;52.746;13.474;2023-04-29T00:17:10;12.00;99.90
3100;DHT22;1560;52.746;13.474;2023-04-29T00:19:39;12.00;99.90
3100;DHT22;1560;52.746;13.474;2023-04-29T00:22:09;12.00;99.90
3100;DHT22;1560;52.746;13.474;2023-04-29T00:24:38;12.00;99.90
3100;DHT22;1560;52.746;13.474;2023-04-29T00:27:06;12.00;99.90
3100;DHT22;1560;52.746;13.474;2023-04-29T00:32:15;11.80;99.90
3100;DHT22;1560;52.746;13.474;2023-04-29T00:34:43;11.90;99.90
3100;DHT22;1560;52.746;13.474;2023-04-29T00:37:14;11.90;99.90
3100;DHT22;1560;52.746;13.474;2023-04-29T00:39:44;11.90;99.90
3100;DHT22;1560;52.746;13.474;2023-04-29T00:42:13;11.90;99.90
3100;DHT22;1560;52.746;13.474;2023-04-29T00:44:41;11.90;99.90
3100;DHT22;1560;52.746;13.474;2023-04-29T00:47:10;11.90;99.90
3100;DHT22;1560;52.746;13.474;2023-04-29T00:49:57;11.80;99.90
3100;DHT22;1560;52.746;13.474;2023-04-29T00:52:27;11.80;99.90
3100;DHT22;1560;52.746;13.474;2023-04-29T00:54:58;11.70;99.90
3100;DHT22;1560;52.746;13.474;2023-04-29T00:57:26;11.80;99.90
3100;DHT22;1560;52.746;13.474;2023-04-29T00:59:57;11.80;99.90
3100;DHT22;1560;52.746;13.474;2023-04-29T01:02:26;11.70;99.90
3100;DHT22;1560;52.746;13.474;2023-04-29T01:04:55;11.70;99.90
3100;DHT22;1560;52.746;13.474;2023-04-29T01:07:28;11.60;99.90
3100;DHT22;1560;52.746;13.474;2023-04-29T01:12:42;11.60;99.90
3100;DHT22;1560;52.746;13.474;2023-04-29T01:15:16;11.70;99.90
3100;DHT22;1560;52.746;13.474;2023-04-29T01:20:23;11.60;99.90
3100;DHT22;1560;52.746;13.474;2023-04-29T01:22:51;11.70;99.90
3100;DHT22;1560;52.746;13.474;2023-04-29T01:25:20;11.70;99.90
3100;DHT22;1560;52.746;13.474;2023-04-29T01:30:34;11.70;99.90
3100;DHT22;1560;52.746;13.474;2023-04-29T01:33:07;11.70;99.90
3100;DHT22;1560;52.746;13.474;2023-04-29T01:35:44;11.60;99.90
3100;DHT22;1560;52.746;13.474;2023-04-29T01:38:22;11.50;99.90
3100;DHT22;1560;52.746;13.474;2023-04-29T01:43:30;11.50;99.90
3100;DHT22;1560;52.746;13.474;2023-04-29T01:46:02;11.50;99.90
3100;DHT22;1560;52.746;13.474;2023-04-29T01:51:11;11.50;99.90
3100;DHT22;1560;52.746;13.474;2023-04-29T01:56:18;11.50;99.90
3100;DHT22;1560;52.746;13.474;2023-04-29T01:58:48;11.50;99.90
3100;DHT22;1560;52.746;13.474;2023-04-29T02:01:16;11.40;99.90
3100;DHT22;1560;52.746;13.474;2023-04-29T02:03:45;11.30;99.90
3100;DHT22;1560;52.746;13.474;2023-04-29T02:06:14;11.30;99.90
3100;DHT22;1560;52.746;13.474;2023-04-29T02:11:21;11.30;99.90
3100;DHT22;1560;52.746;13.474;2023-04-29T02:16:29;11.30;99.90
3100;DHT22;1560;52.746;13.474;2023-04-29T02:18:58;11.30;99.90
3100;DHT22;1560;52.746;13.474;2023-04-29T02:24:06;11.30;99.90
3100;DHT22;1560;52.746;13.474;2023-04-29T02:29:19;11.30;99.90
3100;DHT22;1560;52.746;13.474;2023-04-29T02:31:48;11.30;99.90
3100;DHT22;1560;52.746;13.474;2023-04-29T02:34:19;11.30;99.90
3100;DHT22;1560;52.746;13.474;2023-04-29T02:39:24;11.30;99.90
3100;DHT22;1560;52.746;13.474;2023-04-29T02:41:54;11.30;99.90
3100;DHT22;1560;52.746;13.474;2023-04-29T02:47:02;11.30;99.90
3100;DHT22;1560;52.746;13.474;2023-04-29T02:49:30;11.30;99.90
3100;DHT22;1560;52.746;13.474;2023-04-29T02:51:59;11.30;99.90
3100;DHT22;1560;52.746;13.474;2023-04-29T02:54:30;11.30;99.90
3100;DHT22;1560;52.746;13.474;2023-04-29T02:56:58;11.30;99.90
3100;DHT22;1560;52.746;13.474;2023-04-29T02:59:26;11.20;99.90
3100;DHT22;1560;52.746;13.474;2023-04-29T03:01:55;11.10;99.90
3100;DHT22;1560;52.746;13.474;2023-04-29T03:07:10;11.10;99.90
3100;DHT22;1560;52.746;13.474;2023-04-29T03:09:39;11.20;99.90
3100;DHT22;1560;52.746;13.474;2023-04-29T03:12:07;11.10;99.90
3100;DHT22;1560;52.746;13.474;2023-04-29T03:14:36;11.20;99.90
3100;DHT22;1560;52.746;13.474;2023-04-29T03:17:06;11.00;99.90
3100;DHT22;1560;52.746;13.474;2023-04-29T03:22:24;11.10;99.90
3100;DHT22;1560;52.746;13.474;2023-04-29T03:24:55;11.10;99.90
3100;DHT22;1560;52.746;13.474;2023-04-29T03:30:02;11.00;99.90
3100;DHT22;1560;52.746;13.474;2023-04-29T03:35:12;11.00;99.90
3100;DHT22;1560;52.746;13.474;2023-04-29T03:37:41;11.00;99.90
3100;DHT22;1560;52.746;13.474;2023-04-29T03:40:14;11.10;99.90
3100;DHT22;1560;52.746;13.474;2023-04-29T03:42:45;11.00;99.90
3100;DHT22;1560;52.746;13.474;2023-04-29T03:47:56;11.10;99.90
3100;DHT22;1560;52.746;13.474;2023-04-29T03:50:25;11.10;99.90
3100;DHT22;1560;52.746;13.474;2023-04-29T03:52:54;11.10;99.90
3100;DHT22;1560;52.746;13.474;2023-04-29T03:55:24;11.10;99.90
3100;DHT22;1560;52.746;13.474;2023-04-29T04:00:31;11.00;99.90
3100;DHT22;1560;52.746;13.474;2023-04-29T04:03:00;11.10;99.90
3100;DHT22;1560;52.746;13.474;2023-04-29T04:05:29;11.00;99.90
3100;DHT22;1560;52.746;13.474;2023-04-29T04:08:01;11.10;99.90
3100;DHT22;1560;52.746;13.474;2023-04-29T04:10:29;11.10;99.90
3100;DHT22;1560;52.746;13.474;2023-04-29T04:13:01;11.10;99.90
3100;DHT22;1560;52.746;13.474;2023-04-29T04:15:30;11.10;99.90
3100;DHT22;1560;52.746;13.474;2023-04-29T04:17:58;11.10;99.90
3100;DHT22;1560;52.746;13.474;2023-04-29T04:23:04;11.10;99.90
3100;DHT22;1560;52.746;13.474;2023-04-29T04:25:33;11.10;99.90
3100;DHT22;1560;52.746;13.474;2023-04-29T04:28:02;11.10;99.90
3100;DHT22;1560;52.746;13.474;2023-04-29T04:33:08;11.10;99.90
3100;DHT22;1560;52.746;13.474;2023-04-29T04:35:37;11.10;99.90
3100;DHT22;1560;52.746;13.474;2023-04-29T04:38:06;11.10;99.90
3100;DHT22;1560;52.746;13.474;2023-04-29T04:40:36;11.10;99.90
3100;DHT22;1560;52.746;13.474;2023-04-29T04:43:05;11.10;99.90
3100;DHT22;1560;52.746;13.474;2023-04-29T04:45:34;11.10;99.90
3100;DHT22;1560;52.746;13.474;2023-04-29T04:48:22;11.10;99.90
3100;DHT22;1560;52.746;13.474;2023-04-29T04:50:51;11.10;99.90
3100;DHT22;1560;52.746;13.474;2023-04-29T04:53:19;11.20;99.90
3100;DHT22;1560;52.746;13.474;2023-04-29T04:55:49;11.10;99.90
3100;DHT22;1560;52.746;13.474;2023-04-29T04:58:20;11.20;99.90
3100;DHT22;1560;52.746;13.474;2023-04-29T05:03:26;11.20;99.90
3100;DHT22;1560;52.746;13.474;2023-04-29T05:08:33;11.20;99.90
3100;DHT22;1560;52.746;13.474;2023-04-29T05:11:02;11.20;99.90
3100;DHT22;1560;52.746;13.474;2023-04-29T05:13:32;11.20;99.90
3100;DHT22;1560;52.746;13.474;2023-04-29T05:18:41;11.20;99.90
3100;DHT22;1560;52.746;13.474;2023-04-29T05:21:12;11.20;99.90
3100;DHT22;1560;52.746;13.474;2023-04-29T05:23:40;11.20;99.90
3100;DHT22;1560;52.746;13.474;2023-04-29T05:26:09;11.30;99.90
3100;DHT22;1560;52.746;13.474;2023-04-29T05:28:38;11.30;99.90
3100;DHT22;1560;52.746;13.474;2023-04-29T05:31:07;11.30;99.90
3100;DHT22;1560;52.746;13.474;2023-04-29T05:36:11;11.30;99.90
3100;DHT22;1560;52.746;13.474;2023-04-29T05:41:17;11.30;99.90
3100;DHT22;1560;52.746;13.474;2023-04-29T05:43:45;11.30;99.90
3100;DHT22;1560;52.746;13.474;2023-04-29T05:46:14;11.30;99.90
3100;DHT22;1560;52.746;13.474;2023-04-29T05:48:43;11.30;99.90
3100;DHT22;1560;52.746;13.474;2023-04-29T05:51:15;11.30;99.90
3100;DHT22;1560;52.746;13.474;2023-04-29T05:53:44;11.30;99.90
3100;DHT22;1560;52.746;13.474;2023-04-29T05:56:12;11.30;99.90
3100;DHT22;1560;52.746;13.474;2023-04-29T06:01:18;11.40;99.90
3100;DHT22;1560;52.746;13.474;2023-04-29T06:03:50;11.40;99.90
3100;DHT22;1560;52.746;13.474;2023-04-29T06:06:23;11.40;99.90
3100;DHT22;1560;52.746;13.474;2023-04-29T06:08:52;11.40;99.90
3100;DHT22;1560;52.746;13.474;2023-04-29T06:11:21;11.40;99.90
3100;DHT22;1560;52.746;13.474;2023-04-29T06:16:28;11.40;99.90
3100;DHT22;1560;52.746;13.474;2023-04-29T06:18:57;11.40;99.90
3100;DHT22;1560;52.746;13.474;2023-04-29T06:21:25;11.30;99.90
3100;DHT22;1560;52.746;13.474;2023-04-29T06:23:54;11.20;99.90
3100;DHT22;1560;52.746;13.474;2023-04-29T06:26:23;11.20;99.90
3100;DHT22;1560;52.746;13.474;2023-04-29T06:28:52;11.20;99.90
3100;DHT22;1560;52.746;13.474;2023-04-29T06:34:09;11.20;99.90
3100;DHT22;1560;52.746;13.474;2023-04-29T06:36:38;11.20;99.90
3100;DHT22;1560;52.746;13.474;2023-04-29T06:39:08;11.30;99.90
3100;DHT22;1560;52.746;13.474;2023-04-29T06:41:36;11.20;99.90
3100;DHT22;1560;52.746;13.474;2023-04-29T06:44:05;11.20;99.90
3100;DHT22;1560;52.746;13.474;2023-04-29T06:46:34;11.10;99.90
3100;DHT22;1560;52.746;13.474;2023-04-29T06:51:41;11.10;99.90
3100;DHT22;1560;52.746;13.474;2023-04-29T06:54:09;11.10;99.90
3100;DHT22;1560;52.746;13.474;2023-04-29T06:56:38;11.10;99.90
3100;DHT22;1560;52.746;13.474;2023-04-29T06:59:06;11.10;99.90
3100;DHT22;1560;52.746;13.474;2023-04-29T07:01:44;11.10;99.90
3100;DHT22;1560;52.746;13.474;2023-04-29T07:04:14;11.00;99.90
3100;DHT22;1560;52.746;13.474;2023-04-29T07:06:43;11.00;99.90
3100;DHT22;1560;52.746;13.474;2023-04-29T07:11:53;10.90;99.90
3100;DHT22;1560;52.746;13.474;2023-04-29T07:14:22;10.90;99.90
3100;DHT22;1560;52.746;13.474;2023-04-29T07:16:54;10.90;99.90
3100;DHT22;1560;52.746;13.474;2023-04-29T07:19:23;10.90;99.90
3100;DHT22;1560;52.746;13.474;2023-04-29T07:24:31;10.80;99.90
3100;DHT22;1560;52.746;13.474;2023-04-29T07:27:00;10.70;99.90
3100;DHT22;1560;52.746;13.474;2023-04-29T07:29:29;10.70;99.90
3100;DHT22;1560;52.746;13.474;2023-04-29T07:31:58;10.70;99.90
3100;DHT22;1560;52.746;13.474;2023-04-29T07:37:05;10.70;99.90
3100;DHT22;1560;52.746;13.474;2023-04-29T07:39:36;10.70;99.90
3100;DHT22;1560;52.746;13.474;2023-04-29T07:42:05;10.70;99.90
3100;DHT22;1560;52.746;13.474;2023-04-29T07:44:34;10.70;99.90
3100;DHT22;1560;52.746;13.474;2023-04-29T07:49:42;10.80;99.90
3100;DHT22;1560;52.746;13.474;2023-04-29T07:52:10;10.90;99.90
3100;DHT22;1560;52.746;13.474;2023-04-29T07:54:40;10.90;99.90
3100;DHT22;1560;52.746;13.474;2023-04-29T07:59:50;10.90;99.90
3100;DHT22;1560;52.746;13.474;2023-04-29T08:02:19;10.90;99.90
3100;DHT22;1560;52.746;13.474;2023-04-29T08:07:35;10.80;99.90
3100;DHT22;1560;52.746;13.474;2023-04-29T08:12:46;10.90;99.90
3100;DHT22;1560;52.746;13.474;2023-04-29T08:15:15;10.90;99.90
3100;DHT22;1560;52.746;13.474;2023-04-29T08:17:45;10.90;99.90
3100;DHT22;1560;52.746;13.474;2023-04-29T08:20:14;10.80;99.90
3100;DHT22;1560;52.746;13.474;2023-04-29T08:22:43;10.70;99.90
3100;DHT22;1560;52.746;13.474;2023-04-29T08:27:49;10.70;99.90
3100;DHT22;1560;52.746;13.474;2023-04-29T08:30:19;10.70;99.90
3100;DHT22;1560;52.746;13.474;2023-04-29T08:35:25;10.70;99.90
3100;DHT22;1560;52.746;13.474;2023-04-29T08:37:54;10.70;99.90
3100;DHT22;1560;52.746;13.474;2023-04-29T08:40:23;10.60;99.90
3100;DHT22;1560;52.746;13.474;2023-04-29T08:42:53;10.60;99.90
3100;DHT22;1560;52.746;13.474;2023-04-29T08:45:23;10.50;99.90
3100;DHT22;1560;52.746;13.474;2023-04-29T08:47:52;10.40;99.90
3100;DHT22;1560;52.746;13.474;2023-04-29T08:50:22;10.40;99.90
3100;DHT22;1560;52.746;13.474;2023-04-29T08:52:52;10.30;99.90
3100;DHT22;1560;52.746;13.474;2023-04-29T08:57:59;10.30;99.90
3100;DHT22;1560;52.746;13.474;2023-04-29T09:03:26;10.40;99.90
3100;DHT22;1560;52.746;13.474;2023-04-29T09:05:46;10.30;99.90
3100;DHT22;1560;52.746;13.474;2023-04-29T09:08:17;10.40;99.90
3100;DHT22;1560;52.746;13.474;2023-04-29T09:10:47;10.40;99.90
3100;DHT22;1560;52.746;13.474;2023-04-29T09:13:27;10.40;99.90
3100;DHT22;1560;52.746;13.474;2023-04-29T09:15:57;10.40;99.90
3100;DHT22;1560;52.746;13.474;2023-04-29T09:18:44;10.30;99.90
3100;DHT22;1560;52.746;13.474;2023-04-29T09:23:55;10.40;99.90
3100;DHT22;1560;52.746;13.474;2023-04-29T09:26:25;10.40;99.90
3100;DHT22;1560;52.746;13.474;2023-04-29T09:31:47;10.40;99.90
3100;DHT22;1560;52.746;13.474;2023-04-29T09:34:16;10.40;99.90
3100;DHT22;1560;52.746;13.474;2023-04-29T09:36:48;10.50;99.90
3100;DHT22;1560;52.746;13.474;2023-04-29T09:39:19;10.50;99.90
3100;DHT22;1560;52.746;13.474;2023-04-29T09:41:59;10.50;99.90
3100;DHT22;1560;52.746;13.474;2023-04-29T09:44:43;10.50;99.90
3100;DHT22;1560;52.746;13.474;2023-04-29T09:47:14;10.50;99.90
3100;DHT22;1560;52.746;13.474;2023-04-29T09:49:44;10.50;99.90
3100;DHT22;1560;52.746;13.474;2023-04-29T09:52:14;10.60;99.90
3100;DHT22;1560;52.746;13.474;2023-04-29T09:54:47;10.60;99.90
3100;DHT22;1560;52.746;13.474;2023-04-29T09:59:54;10.70;99.90
3100;DHT22;1560;52.746;13.474;2023-04-29T10:02:23;10.60;99.90
3100;DHT22;1560;52.746;13.474;2023-04-29T10:04:53;10.60;99.90
3100;DHT22;1560;52.746;13.474;2023-04-29T10:07:25;10.70;99.90
3100;DHT22;1560;52.746;13.474;2023-04-29T10:12:36;10.70;99.90
3100;DHT22;1560;52.746;13.474;2023-04-29T10:17:51;10.70;99.90
3100;DHT22;1560;52.746;13.474;2023-04-29T10:20:22;10.70;99.90
3100;DHT22;1560;52.746;13.474;2023-04-29T10:22:52;10.80;99.90
3100;DHT22;1560;52.746;13.474;2023-04-29T10:25:24;10.90;99.90
3100;DHT22;1560;52.746;13.474;2023-04-29T10:27:55;10.90;99.90
3100;DHT22;1560;52.746;13.474;2023-04-29T10:30:24;10.90;99.90
3100;DHT22;1560;52.746;13.474;2023-04-29T10:32:56;11.00;99.90
3100;DHT22;1560;52.746;13.474;2023-04-29T10:35:26;11.10;99.90
3100;DHT22;1560;52.746;13.474;2023-04-29T10:40:41;11.40;99.90
3100;DHT22;1560;52.746;13.474;2023-04-29T10:43:09;11.60;99.90
3100;DHT22;1560;52.746;13.474;2023-04-29T10:45:39;11.90;99.90
3100;DHT22;1560;52.746;13.474;2023-04-29T10:48:14;12.00;99.90
3100;DHT22;1560;52.746;13.474;2023-04-29T10:51:00;12.00;99.90
3100;DHT22;1560;52.746;13.474;2023-04-29T10:53:30;11.90;99.90
3100;DHT22;1560;52.746;13.474;2023-04-29T10:56:07;11.80;99.90
3100;DHT22;1560;52.746;13.474;2023-04-29T10:58:47;11.80;99.90
3100;DHT22;1560;52.746;13.474;2023-04-29T11:07:06;11.80;99.90
3100;DHT22;1560;52.746;13.474;2023-04-29T11:09:37;11.90;99.90
3100;DHT22;1560;52.746;13.474;2023-04-29T11:12:08;12.00;99.90
3100;DHT22;1560;52.746;13.474;2023-04-29T11:14:40;12.10;99.90
3100;DHT22;1560;52.746;13.474;2023-04-29T11:19:49;12.10;99.90
3100;DHT22;1560;52.746;13.474;2023-04-29T11:22:28;12.10;99.90
3100;DHT22;1560;52.746;13.474;2023-04-29T11:27:40;12.20;99.90
3100;DHT22;1560;52.746;13.474;2023-04-29T11:32:49;12.30;99.90
3100;DHT22;1560;52.746;13.474;2023-04-29T11:35:18;12.30;99.90
3100;DHT22;1560;52.746;13.474;2023-04-29T11:37:47;12.20;99.90
3100;DHT22;1560;52.746;13.474;2023-04-29T11:40:16;12.30;99.90
3100;DHT22;1560;52.746;13.474;2023-04-29T11:42:47;12.30;99.90
3100;DHT22;1560;52.746;13.474;2023-04-29T11:45:18;12.30;99.90
3100;DHT22;1560;52.746;13.474;2023-04-29T11:47:48;12.40;99.90
3100;DHT22;1560;52.746;13.474;2023-04-29T11:53:04;12.50;99.90
3100;DHT22;1560;52.746;13.474;2023-04-29T11:55:33;12.60;99.90
3100;DHT22;1560;52.746;13.474;2023-04-29T12:00:44;12.50;99.90
3100;DHT22;1560;52.746;13.474;2023-04-29T12:05:56;12.50;99.90
3100;DHT22;1560;52.746;13.474;2023-04-29T12:08:26;12.40;99.90
3100;DHT22;1560;52.746;13.474;2023-04-29T12:10:58;12.40;99.90
3100;DHT22;1560;52.746;13.474;2023-04-29T12:13:28;12.40;99.90
3100;DHT22;1560;52.746;13.474;2023-04-29T12:16:09;12.40;99.90
3100;DHT22;1560;52.746;13.474;2023-04-29T12:18:38;12.30;99.90
3100;DHT22;1560;52.746;13.474;2023-04-29T12:21:07;12.30;99.90
3100;DHT22;1560;52.746;13.474;2023-04-29T12:23:36;12.30;99.90
3100;DHT22;1560;52.746;13.474;2023-04-29T12:28:44;12.50;99.90
3100;DHT22;1560;52.746;13.474;2023-04-29T12:31:14;12.60;99.90
3100;DHT22;1560;52.746;13.474;2023-04-29T12:33:44;12.60;99.90
3100;DHT22;1560;52.746;13.474;2023-04-29T12:36:19;12.60;99.90
3100;DHT22;1560;52.746;13.474;2023-04-29T12:38:48;12.60;99.90
3100;DHT22;1560;52.746;13.474;2023-04-29T12:43:56;12.70;99.90
3100;DHT22;1560;52.746;13.474;2023-04-29T12:49:05;12.90;99.90
3100;DHT22;1560;52.746;13.474;2023-04-29T12:51:40;12.90;99.90
3100;DHT22;1560;52.746;13.474;2023-04-29T12:54:09;13.00;99.90
3100;DHT22;1560;52.746;13.474;2023-04-29T12:56:38;12.90;99.90
3100;DHT22;1560;52.746;13.474;2023-04-29T12:59:08;12.90;99.90
3100;DHT22;1560;52.746;13.474;2023-04-29T13:01:39;13.00;99.90
3100;DHT22;1560;52.746;13.474;2023-04-29T13:04:08;13.00;99.90
3100;DHT22;1560;52.746;13.474;2023-04-29T13:06:38;13.00;99.90
3100;DHT22;1560;52.746;13.474;2023-04-29T13:09:09;12.90;99.90
3100;DHT22;1560;52.746;13.474;2023-04-29T13:11:38;13.00;99.90
3100;DHT22;1560;52.746;13.474;2023-04-29T13:14:07;12.90;99.90
3100;DHT22;1560;52.746;13.474;2023-04-29T13:16:38;13.00;99.90
3100;DHT22;1560;52.746;13.474;2023-04-29T13:19:09;13.00;99.90
3100;DHT22;1560;52.746;13.474;2023-04-29T13:21:38;13.00;99.90
3100;DHT22;1560;52.746;13.474;2023-04-29T13:26:55;13.20;99.90
3100;DHT22;1560;52.746;13.474;2023-04-29T13:29:24;13.20;99.90
3100;DHT22;1560;52.746;13.474;2023-04-29T13:31:54;13.20;99.90
3100;DHT22;1560;52.746;13.474;2023-04-29T13:37:01;13.20;99.90
3100;DHT22;1560;52.746;13.474;2023-04-29T13:39:30;13.20;99.90
3100;DHT22;1560;52.746;13.474;2023-04-29T13:44:42;13.20;99.90
3100;DHT22;1560;52.746;13.474;2023-04-29T13:47:12;13.30;99.90
3100;DHT22;1560;52.746;13.474;2023-04-29T13:49:41;13.40;99.90
3100;DHT22;1560;52.746;13.474;2023-04-29T13:52:11;13.40;99.90
3100;DHT22;1560;52.746;13.474;2023-04-29T13:54:40;13.50;99.90
3100;DHT22;1560;52.746;13.474;2023-04-29T13:59:48;13.40;99.90
3100;DHT22;1560;52.746;13.474;2023-04-29T14:02:19;13.40;99.90
3100;DHT22;1560;52.746;13.474;2023-04-29T14:04:47;13.40;99.90
3100;DHT22;1560;52.746;13.474;2023-04-29T14:10:02;13.40;99.90
3100;DHT22;1560;52.746;13.474;2023-04-29T14:12:30;13.40;99.90
3100;DHT22;1560;52.746;13.474;2023-04-29T14:14:59;13.50;99.90
3100;DHT22;1560;52.746;13.474;2023-04-29T14:17:28;13.50;99.90
3100;DHT22;1560;52.746;13.474;2023-04-29T14:19:56;13.60;99.90
3100;DHT22;1560;52.746;13.474;2023-04-29T14:25:03;13.60;99.90
3100;DHT22;1560;52.746;13.474;2023-04-29T14:27:32;13.80;99.90
3100;DHT22;1560;52.746;13.474;2023-04-29T14:32:40;13.90;99.90
3100;DHT22;1560;52.746;13.474;2023-04-29T14:35:09;14.00;99.90
3100;DHT22;1560;52.746;13.474;2023-04-29T14:37:42;14.10;99.90
3100;DHT22;1560;52.746;13.474;2023-04-29T14:40:12;14.10;99.90
3100;DHT22;1560;52.746;13.474;2023-04-29T14:42:42;14.10;99.90
3100;DHT22;1560;52.746;13.474;2023-04-29T14:47:54;14.10;99.90
3100;DHT22;1560;52.746;13.474;2023-04-29T14:50:29;14.10;99.90
3100;DHT22;1560;52.746;13.474;2023-04-29T14:53:00;14.20;99.90
3100;DHT22;1560;52.746;13.474;2023-04-29T14:55:28;14.20;99.90
3100;DHT22;1560;52.746;13.474;2023-04-29T14:57:57;14.10;99.90
3100;DHT22;1560;52.746;13.474;2023-04-29T15:03:10;14.10;99.90
3100;DHT22;1560;52.746;13.474;2023-04-29T15:05:39;14.00;99.90
3100;DHT22;1560;52.746;13.474;2023-04-29T15:08:08;14.10;99.90
3100;DHT22;1560;52.746;13.474;2023-04-29T15:10:41;14.10;99.90
3100;DHT22;1560;52.746;13.474;2023-04-29T15:15:54;14.10;99.90
3100;DHT22;1560;52.746;13.474;2023-04-29T15:18:23;14.10;99.90
3100;DHT22;1560;52.746;13.474;2023-04-29T15:20:52;14.00;99.90
3100;DHT22;1560;52.746;13.474;2023-04-29T15:23:21;14.00;99.90
3100;DHT22;1560;52.746;13.474;2023-04-29T15:25:50;13.90;99.90
3100;DHT22;1560;52.746;13.474;2023-04-29T15:30:57;13.90;99.90
3100;DHT22;1560;52.746;13.474;2023-04-29T15:33:28;13.90;99.90
3100;DHT22;1560;52.746;13.474;2023-04-29T15:35:56;13.90;99.90
3100;DHT22;1560;52.746;13.474;2023-04-29T15:38:25;13.90;99.90
3100;DHT22;1560;52.746;13.474;2023-04-29T15:40:55;14.00;99.90
3100;DHT22;1560;52.746;13.474;2023-04-29T15:43:26;14.10;99.90
3100;DHT22;1560;52.746;13.474;2023-04-29T15:45:55;14.20;99.90
3100;DHT22;1560;52.746;13.474;2023-04-29T15:51:03;14.30;99.90
3100;DHT22;1560;52.746;13.474;2023-04-29T15:53:31;14.20;99.90
3100;DHT22;1560;52.746;13.474;2023-04-29T15:58:41;14.10;99.90
3100;DHT22;1560;52.746;13.474;2023-04-29T16:01:09;14.10;99.90
3100;DHT22;1560;52.746;13.474;2023-04-29T16:03:38;14.00;99.90
3100;DHT22;1560;52.746;13.474;2023-04-29T16:06:07;14.00;99.90
3100;DHT22;1560;52.746;13.474;2023-04-29T16:08:37;14.00;99.90
3100;DHT22;1560;52.746;13.474;2023-04-29T16:11:06;13.90;99.90
3100;DHT22;1560;52.746;13.474;2023-04-29T16:13:34;14.00;99.90
3100;DHT22;1560;52.746;13.474;2023-04-29T16:16:03;14.00;99.90
3100;DHT22;1560;52.746;13.474;2023-04-29T16:18:32;14.10;99.90
3100;DHT22;1560;52.746;13.474;2023-04-29T16:21:03;14.20;99.90
3100;DHT22;1560;52.746;13.474;2023-04-29T16:23:32;14.20;99.90
3100;DHT22;1560;52.746;13.474;2023-04-29T16:26:00;14.30;99.90
3100;DHT22;1560;52.746;13.474;2023-04-29T16:28:29;14.30;99.90
3100;DHT22;1560;52.746;13.474;2023-04-29T16:30:58;14.30;99.90
3100;DHT22;1560;52.746;13.474;2023-04-29T16:36:05;14.40;99.90
3100;DHT22;1560;52.746;13.474;2023-04-29T16:38:33;14.40;99.90
3100;DHT22;1560;52.746;13.474;2023-04-29T16:41:02;14.40;99.90
3100;DHT22;1560;52.746;13.474;2023-04-29T16:46:24;14.40;99.90
3100;DHT22;1560;52.746;13.474;2023-04-29T16:48:53;14.40;99.90
3100;DHT22;1560;52.746;13.474;2023-04-29T16:51:23;14.30;99.80
3100;DHT22;1560;52.746;13.474;2023-04-29T16:53:52;14.30;98.90
3100;DHT22;1560;52.746;13.474;2023-04-29T16:56:21;14.30;99.10
3100;DHT22;1560;52.746;13.474;2023-04-29T16:58:49;14.20;98.80
3100;DHT22;1560;52.746;13.474;2023-04-29T17:01:19;14.20;99.90
3100;DHT22;1560;52.746;13.474;2023-04-29T17:03:48;14.20;99.60
3100;DHT22;1560;52.746;13.474;2023-04-29T17:06:17;14.20;99.30
3100;DHT22;1560;52.746;13.474;2023-04-29T17:08:46;14.20;97.90
3100;DHT22;1560;52.746;13.474;2023-04-29T17:11:14;14.10;98.20
3100;DHT22;1560;52.746;13.474;2023-04-29T17:13:44;14.10;97.60
3100;DHT22;1560;52.746;13.474;2023-04-29T17:16:13;14.00;98.80
3100;DHT22;1560;52.746;13.474;2023-04-29T17:18:42;14.00;97.60
3100;DHT22;1560;52.746;13.474;2023-04-29T17:21:11;13.90;99.40
3100;DHT22;1560;52.746;13.474;2023-04-29T17:23:40;13.90;99.20
3100;DHT22;1560;52.746;13.474;2023-04-29T17:26:09;13.70;99.80
3100;DHT22;1560;52.746;13.474;2023-04-29T17:28:38;13.70;99.90
3100;DHT22;1560;52.746;13.474;2023-04-29T17:31:07;13.60;99.90
3100;DHT22;1560;52.746;13.474;2023-04-29T17:33:37;13.50;99.90
3100;DHT22;1560;52.746;13.474;2023-04-29T17:38:53;13.30;99.90
3100;DHT22;1560;52.746;13.474;2023-04-29T17:41:22;13.30;99.90
3100;DHT22;1560;52.746;13.474;2023-04-29T17:43:51;13.30;99.90
3100;DHT22;1560;52.746;13.474;2023-04-29T17:48:59;13.10;99.90
3100;DHT22;1560;52.746;13.474;2023-04-29T17:51:28;13.10;99.90
3100;DHT22;1560;52.746;13.474;2023-04-29T17:54:00;13.10;99.90
3100;DHT22;1560;52.746;13.474;2023-04-29T17:56:30;13.10;99.90
3100;DHT22;1560;52.746;13.474;2023-04-29T17:59:01;13.10;99.90
3100;DHT22;1560;52.746;13.474;2023-04-29T18:04:10;13.10;99.90
3100;DHT22;1560;52.746;13.474;2023-04-29T18:06:39;13.10;99.90
3100;DHT22;1560;52.746;13.474;2023-04-29T18:09:09;13.10;99.90
3100;DHT22;1560;52.746;13.474;2023-04-29T18:14:17;13.00;99.90
3100;DHT22;1560;52.746;13.474;2023-04-29T18:16:46;13.00;99.90
3100;DHT22;1560;52.746;13.474;2023-04-29T18:19:18;12.90;99.90
3100;DHT22;1560;52.746;13.474;2023-04-29T18:21:56;12.90;99.90
3100;DHT22;1560;52.746;13.474;2023-04-29T18:24:27;12.80;99.90
3100;DHT22;1560;52.746;13.474;2023-04-29T18:26:56;12.70;99.90
3100;DHT22;1560;52.746;13.474;2023-04-29T18:32:04;12.60;99.90
3100;DHT22;1560;52.746;13.474;2023-04-29T18:34:32;12.60;99.90
3100;DHT22;1560;52.746;13.474;2023-04-29T18:37:01;12.50;99.90
3100;DHT22;1560;52.746;13.474;2023-04-29T18:39:30;12.40;99.90
3100;DHT22;1560;52.746;13.474;2023-04-29T18:41:58;12.40;99.90
3100;DHT22;1560;52.746;13.474;2023-04-29T18:47:11;12.30;99.90
3100;DHT22;1560;52.746;13.474;2023-04-29T18:52:19;12.20;99.90
3100;DHT22;1560;52.746;13.474;2023-04-29T18:54:48;12.20;99.90
3100;DHT22;1560;52.746;13.474;2023-04-29T18:57:17;12.20;99.90
3100;DHT22;1560;52.746;13.474;2023-04-29T18:59:46;12.20;99.90
3100;DHT22;1560;52.746;13.474;2023-04-29T19:02:14;12.20;99.90
3100;DHT22;1560;52.746;13.474;2023-04-29T19:07:22;12.20;99.90
3100;DHT22;1560;52.746;13.474;2023-04-29T19:09:50;12.10;99.90
3100;DHT22;1560;52.746;13.474;2023-04-29T19:12:19;12.10;99.90
3100;DHT22;1560;52.746;13.474;2023-04-29T19:17:26;11.90;99.90
3100;DHT22;1560;52.746;13.474;2023-04-29T19:19:55;11.80;99.90
3100;DHT22;1560;52.746;13.474;2023-04-29T19:22:24;11.80;99.90
3100;DHT22;1560;52.746;13.474;2023-04-29T19:24:53;11.80;99.90
3100;DHT22;1560;52.746;13.474;2023-04-29T19:27:22;11.70;99.90
3100;DHT22;1560;52.746;13.474;2023-04-29T19:29:51;11.60;99.90
3100;DHT22;1560;52.746;13.474;2023-04-29T19:32:19;11.60;99.90
3100;DHT22;1560;52.746;13.474;2023-04-29T19:37:33;11.50;99.90
3100;DHT22;1560;52.746;13.474;2023-04-29T19:40:02;11.40;99.90
3100;DHT22;1560;52.746;13.474;2023-04-29T19:42:31;11.40;99.90
3100;DHT22;1560;52.746;13.474;2023-04-29T19:44:59;11.40;99.90
3100;DHT22;1560;52.746;13.474;2023-04-29T19:47:28;11.30;99.90